sensor_id;sensor_type;location;lat;lon;timestamp;temperature;humidity
22383;DHT22;11359;45.802;13.530;2022-10-30T00:01:09;18.00;70.40
22383;DHT22;11359;45.802;13.530;2022-10-30T00:03:34;18.00;70.40
22383;DHT22;11359;45.802;13.530;2022-10-30T00:06:02;18.00;70.40
22383;DHT22;11359;45.802;13.530;2022-10-30T00:08:27;18.00;70.50
22383;DHT22;11359;45.802;13.530;2022-10-30T00:10:53;18.00;70.50
22383;DHT22;11359;45.802;13.530;2022-10-30T00:13:19;17.90;70.40
22383;DHT22;11359;45.802;13.530;2022-10-30T00:15:49;17.90;70.30
22383;DHT22;11359;45.802;13.530;2022-10-30T00:21:03;17.90;70.40
22383;DHT22;11359;45.802;13.530;2022-10-30T00:23:29;17.90;70.40
22383;DHT22;11359;45.802;13.530;2022-10-30T00:25:54;17.90;70.40
22383;DHT22;11359;45.802;13.530;2022-10-30T00:28:20;17.90;70.50
22383;DHT22;11359;45.802;13.530;2022-10-30T00:30:45;17.90;70.40
22383;DHT22;11359;45.802;13.530;2022-10-30T00:33:11;17.90;70.50
22383;DHT22;11359;45.802;13.530;2022-10-30T00:35:36;17.90;70.50
22383;DHT22;11359;45.802;13.530;2022-10-30T00:38:02;17.80;70.40
22383;DHT22;11359;45.802;13.530;2022-10-30T00:40:27;17.90;70.50
22383;DHT22;11359;45.802;13.530;2022-10-30T00:42:53;17.80;70.40
22383;DHT22;11359;45.802;13.530;2022-10-30T00:45:18;17.80;70.40
22383;DHT22;11359;45.802;13.530;2022-10-30T00:48:17;17.80;70.50
22383;DHT22;11359;45.802;13.530;2022-10-30T00:50:36;17.80;70.50
22383;DHT22;11359;45.802;13.530;2022-10-30T00:53:04;17.80;70.50
22383;DHT22;11359;45.802;13.530;2022-10-30T00:55:41;17.80;70.50
22383;DHT22;11359;45.802;13.530;2022-10-30T00:58:08;17.80;70.60
22383;DHT22;11359;45.802;13.530;2022-10-30T01:00:35;17.80;70.60
22383;DHT22;11359;45.802;13.530;2022-10-30T01:03:01;17.80;70.60
22383;DHT22;11359;45.802;13.530;2022-10-30T01:05:27;17.80;70.70
22383;DHT22;11359;45.802;13.530;2022-10-30T01:07:54;17.80;70.70
22383;DHT22;11359;45.802;13.530;2022-10-30T01:10:20;17.80;70.70
22383;DHT22;11359;45.802;13.530;2022-10-30T01:12:45;17.70;70.60
22383;DHT22;11359;45.802;13.530;2022-10-30T01:15:12;17.80;70.70
22383;DHT22;11359;45.802;13.530;2022-10-30T01:25:40;17.80;70.70
22383;DHT22;11359;45.802;13.530;2022-10-30T01:35:55;17.80;70.70
22383;DHT22;11359;45.802;13.530;2022-10-30T01:40:49;17.70;70.50
22383;DHT22;11359;45.802;13.530;2022-10-30T01:43:15;17.80;70.60
22383;DHT22;11359;45.802;13.530;2022-10-30T01:51:11;17.70;70.50
22383;DHT22;11359;45.802;13.530;2022-10-30T01:56:28;17.70;70.40
22383;DHT22;11359;45.802;13.530;2022-10-30T01:59:40;17.70;70.40
22383;DHT22;11359;45.802;13.530;2022-10-30T02:01:45;17.70;70.40
22383;DHT22;11359;45.802;13.530;2022-10-30T02:04:11;17.70;71.20
22383;DHT22;11359;45.802;13.530;2022-10-30T02:06:37;17.70;70.40
22383;DHT22;11359;45.802;13.530;2022-10-30T02:09:03;17.70;70.40
22383;DHT22;11359;45.802;13.530;2022-10-30T02:11:29;17.60;70.40
22383;DHT22;11359;45.802;13.530;2022-10-30T02:13:56;17.60;70.30
22383;DHT22;11359;45.802;13.530;2022-10-30T02:16:22;17.60;70.30
22383;DHT22;11359;45.802;13.530;2022-10-30T02:18:47;17.60;70.30
22383;DHT22;11359;45.802;13.530;2022-10-30T02:21:13;17.60;70.30
22383;DHT22;11359;45.802;13.530;2022-10-30T02:23:39;17.60;70.30
22383;DHT22;11359;45.802;13.530;2022-10-30T02:26:04;17.50;70.30
22383;DHT22;11359;45.802;13.530;2022-10-30T02:28:30;17.60;70.30
22383;DHT22;11359;45.802;13.530;2022-10-30T02:30:55;17.60;70.30
22383;DHT22;11359;45.802;13.530;2022-10-30T02:33:21;17.50;70.20
22383;DHT22;11359;45.802;13.530;2022-10-30T02:35:49;17.50;70.30
22383;DHT22;11359;45.802;13.530;2022-10-30T02:38:14;17.50;70.30
22383;DHT22;11359;45.802;13.530;2022-10-30T02:40:40;17.50;70.30
22383;DHT22;11359;45.802;13.530;2022-10-30T02:43:05;17.50;70.30
22383;DHT22;11359;45.802;13.530;2022-10-30T02:45:31;17.50;70.30
22383;DHT22;11359;45.802;13.530;2022-10-30T02:47:57;17.50;70.30
22383;DHT22;11359;45.802;13.530;2022-10-30T02:50:23;17.50;70.30
22383;DHT22;11359;45.802;13.530;2022-10-30T02:52:48;17.40;70.20
22383;DHT22;11359;45.802;13.530;2022-10-30T02:55:14;17.40;70.20
22383;DHT22;11359;45.802;13.530;2022-10-30T02:57:40;17.40;70.20
22383;DHT22;11359;45.802;13.530;2022-10-30T03:00:05;17.40;70.20
22383;DHT22;11359;45.802;13.530;2022-10-30T03:02:31;17.40;70.30
22383;DHT22;11359;45.802;13.530;2022-10-30T03:04:56;17.40;70.30
22383;DHT22;11359;45.802;13.530;2022-10-30T03:07:22;17.40;70.30
22383;DHT22;11359;45.802;13.530;2022-10-30T03:09:48;17.40;70.30
22383;DHT22;11359;45.802;13.530;2022-10-30T03:12:13;17.40;70.30
22383;DHT22;11359;45.802;13.530;2022-10-30T03:14:39;17.40;70.30
22383;DHT22;11359;45.802;13.530;2022-10-30T03:17:04;17.30;70.20
22383;DHT22;11359;45.802;13.530;2022-10-30T03:19:30;17.30;70.20
22383;DHT22;11359;45.802;13.530;2022-10-30T03:21:55;17.30;70.30
22383;DHT22;11359;45.802;13.530;2022-10-30T03:24:21;17.30;70.30
22383;DHT22;11359;45.802;13.530;2022-10-30T03:26:46;17.30;70.30
22383;DHT22;11359;45.802;13.530;2022-10-30T03:29:12;17.30;70.30
22383;DHT22;11359;45.802;13.530;2022-10-30T03:31:37;17.30;70.30
22383;DHT22;11359;45.802;13.530;2022-10-30T03:34:03;17.30;70.40
22383;DHT22;11359;45.802;13.530;2022-10-30T03:36:28;17.30;70.40
22383;DHT22;11359;45.802;13.530;2022-10-30T03:38:54;17.30;70.40
22383;DHT22;11359;45.802;13.530;2022-10-30T03:41:20;17.30;70.40
22383;DHT22;11359;45.802;13.530;2022-10-30T03:43:46;17.30;70.40
22383;DHT22;11359;45.802;13.530;2022-10-30T03:46:12;17.30;70.40
22383;DHT22;11359;45.802;13.530;2022-10-30T03:48:37;17.30;70.30
22383;DHT22;11359;45.802;13.530;2022-10-30T03:51:03;17.30;70.30
22383;DHT22;11359;45.802;13.530;2022-10-30T03:53:28;17.30;70.30
22383;DHT22;11359;45.802;13.530;2022-10-30T03:55:58;17.20;70.30
22383;DHT22;11359;45.802;13.530;2022-10-30T03:58:24;17.20;70.30
22383;DHT22;11359;45.802;13.530;2022-10-30T04:00:50;17.30;70.30
22383;DHT22;11359;45.802;13.530;2022-10-30T04:03:16;17.20;70.20
22383;DHT22;11359;45.802;13.530;2022-10-30T04:05:41;17.30;70.30
22383;DHT22;11359;45.802;13.530;2022-10-30T04:08:09;17.20;70.20
22383;DHT22;11359;45.802;13.530;2022-10-30T04:10:35;17.20;70.20
22383;DHT22;11359;45.802;13.530;2022-10-30T04:13:05;17.20;70.20
22383;DHT22;11359;45.802;13.530;2022-10-30T04:15:31;17.20;70.20
22383;DHT22;11359;45.802;13.530;2022-10-30T04:17:57;17.20;70.20
22383;DHT22;11359;45.802;13.530;2022-10-30T04:20:22;17.10;70.10
22383;DHT22;11359;45.802;13.530;2022-10-30T04:22:53;17.20;70.20
22383;DHT22;11359;45.802;13.530;2022-10-30T04:25:19;17.10;70.10
22383;DHT22;11359;45.802;13.530;2022-10-30T04:27:44;17.10;70.10
22383;DHT22;11359;45.802;13.530;2022-10-30T04:30:10;17.10;70.20
22383;DHT22;11359;45.802;13.530;2022-10-30T04:32:53;17.10;70.20
22383;DHT22;11359;45.802;13.530;2022-10-30T04:35:19;17.10;70.20
22383;DHT22;11359;45.802;13.530;2022-10-30T04:37:55;17.10;70.30
22383;DHT22;11359;45.802;13.530;2022-10-30T04:40:24;17.10;70.30
22383;DHT22;11359;45.802;13.530;2022-10-30T04:42:50;17.10;70.30
22383;DHT22;11359;45.802;13.530;2022-10-30T04:45:16;17.10;70.30
22383;DHT22;11359;45.802;13.530;2022-10-30T04:47:42;17.10;70.30
22383;DHT22;11359;45.802;13.530;2022-10-30T04:50:07;17.10;70.30
22383;DHT22;11359;45.802;13.530;2022-10-30T04:52:33;17.10;70.30
22383;DHT22;11359;45.802;13.530;2022-10-30T04:54:59;17.10;70.30
22383;DHT22;11359;45.802;13.530;2022-10-30T04:57:24;17.10;70.30
22383;DHT22;11359;45.802;13.530;2022-10-30T04:59:50;17.10;70.30
22383;DHT22;11359;45.802;13.530;2022-10-30T05:02:15;17.10;70.30
22383;DHT22;11359;45.802;13.530;2022-10-30T05:04:43;17.10;70.20
22383;DHT22;11359;45.802;13.530;2022-10-30T05:07:09;17.10;70.20
22383;DHT22;11359;45.802;13.530;2022-10-30T05:09:35;17.10;70.20
22383;DHT22;11359;45.802;13.530;2022-10-30T05:12:00;17.10;70.20
22383;DHT22;11359;45.802;13.530;2022-10-30T05:14:29;17.00;70.10
22383;DHT22;11359;45.802;13.530;2022-10-30T05:16:55;17.00;70.10
22383;DHT22;11359;45.802;13.530;2022-10-30T05:19:20;17.00;70.10
22383;DHT22;11359;45.802;13.530;2022-10-30T05:21:46;17.00;70.10
22383;DHT22;11359;45.802;13.530;2022-10-30T05:24:11;17.00;70.10
22383;DHT22;11359;45.802;13.530;2022-10-30T05:26:37;17.00;70.10
22383;DHT22;11359;45.802;13.530;2022-10-30T05:29:02;17.00;70.10
22383;DHT22;11359;45.802;13.530;2022-10-30T05:31:28;17.00;70.10
22383;DHT22;11359;45.802;13.530;2022-10-30T05:33:54;17.00;70.10
22383;DHT22;11359;45.802;13.530;2022-10-30T05:36:19;17.00;70.10
22383;DHT22;11359;45.802;13.530;2022-10-30T05:38:45;17.00;70.10
22383;DHT22;11359;45.802;13.530;2022-10-30T05:41:11;17.00;70.10
22383;DHT22;11359;45.802;13.530;2022-10-30T05:43:36;17.00;70.00
22383;DHT22;11359;45.802;13.530;2022-10-30T05:46:02;16.90;70.00
22383;DHT22;11359;45.802;13.530;2022-10-30T05:48:27;17.00;70.00
22383;DHT22;11359;45.802;13.530;2022-10-30T05:50:56;16.90;69.90
22383;DHT22;11359;45.802;13.530;2022-10-30T05:53:22;16.90;70.00
22383;DHT22;11359;45.802;13.530;2022-10-30T05:55:48;16.90;70.00
22383;DHT22;11359;45.802;13.530;2022-10-30T05:58:13;16.90;70.00
22383;DHT22;11359;45.802;13.530;2022-10-30T06:00:39;16.90;69.90
22383;DHT22;11359;45.802;13.530;2022-10-30T06:03:06;16.90;70.00
22383;DHT22;11359;45.802;13.530;2022-10-30T06:05:32;16.80;69.90
22383;DHT22;11359;45.802;13.530;2022-10-30T06:07:58;16.90;70.00
22383;DHT22;11359;45.802;13.530;2022-10-30T06:10:24;16.90;70.10
22383;DHT22;11359;45.802;13.530;2022-10-30T06:12:57;16.80;70.00
22383;DHT22;11359;45.802;13.530;2022-10-30T06:15:23;16.90;70.10
22383;DHT22;11359;45.802;13.530;2022-10-30T06:17:49;16.90;70.10
22383;DHT22;11359;45.802;13.530;2022-10-30T06:20:15;16.90;70.10
22383;DHT22;11359;45.802;13.530;2022-10-30T06:22:40;16.90;70.10
22383;DHT22;11359;45.802;13.530;2022-10-30T06:25:06;16.90;70.20
22383;DHT22;11359;45.802;13.530;2022-10-30T06:27:35;16.80;70.10
22383;DHT22;11359;45.802;13.530;2022-10-30T06:30:00;16.90;70.20
22383;DHT22;11359;45.802;13.530;2022-10-30T06:32:26;16.80;70.10
22383;DHT22;11359;45.802;13.530;2022-10-30T06:34:51;16.80;70.20
22383;DHT22;11359;45.802;13.530;2022-10-30T06:37:17;16.80;70.20
22383;DHT22;11359;45.802;13.530;2022-10-30T06:39:42;16.90;70.30
22383;DHT22;11359;45.802;13.530;2022-10-30T06:42:08;16.90;70.40
22383;DHT22;11359;45.802;13.530;2022-10-30T06:44:33;16.80;70.50
22383;DHT22;11359;45.802;13.530;2022-10-30T06:46:59;16.80;70.40
22383;DHT22;11359;45.802;13.530;2022-10-30T06:49:24;16.90;70.50
22383;DHT22;11359;45.802;13.530;2022-10-30T06:51:50;16.90;70.50
22383;DHT22;11359;45.802;13.530;2022-10-30T06:54:15;16.90;70.50
22383;DHT22;11359;45.802;13.530;2022-10-30T06:56:41;16.90;70.60
22383;DHT22;11359;45.802;13.530;2022-10-30T06:59:07;16.90;70.60
22383;DHT22;11359;45.802;13.530;2022-10-30T07:01:32;16.90;70.60
22383;DHT22;11359;45.802;13.530;2022-10-30T07:03:58;16.90;70.60
22383;DHT22;11359;45.802;13.530;2022-10-30T07:06:24;16.90;70.60
22383;DHT22;11359;45.802;13.530;2022-10-30T07:08:49;17.00;70.70
22383;DHT22;11359;45.802;13.530;2022-10-30T07:11:15;17.00;70.70
22383;DHT22;11359;45.802;13.530;2022-10-30T07:13:40;17.00;70.70
22383;DHT22;11359;45.802;13.530;2022-10-30T07:16:06;17.00;70.80
22383;DHT22;11359;45.802;13.530;2022-10-30T07:18:31;17.00;70.80
22383;DHT22;11359;45.802;13.530;2022-10-30T07:20:57;17.00;70.80
22383;DHT22;11359;45.802;13.530;2022-10-30T07:23:22;17.00;70.70
22383;DHT22;11359;45.802;13.530;2022-10-30T07:25:48;17.10;70.90
22383;DHT22;11359;45.802;13.530;2022-10-30T07:28:14;17.10;70.90
22383;DHT22;11359;45.802;13.530;2022-10-30T07:30:39;17.10;70.90
22383;DHT22;11359;45.802;13.530;2022-10-30T07:33:06;17.10;70.90
22383;DHT22;11359;45.802;13.530;2022-10-30T07:35:32;17.10;71.00
22383;DHT22;11359;45.802;13.530;2022-10-30T07:38:05;17.20;71.10
22383;DHT22;11359;45.802;13.530;2022-10-30T07:40:31;17.20;71.10
22383;DHT22;11359;45.802;13.530;2022-10-30T07:42:57;17.20;71.10
22383;DHT22;11359;45.802;13.530;2022-10-30T07:45:24;17.20;71.00
22383;DHT22;11359;45.802;13.530;2022-10-30T07:47:49;17.30;71.10
22383;DHT22;11359;45.802;13.530;2022-10-30T07:50:15;17.30;71.10
22383;DHT22;11359;45.802;13.530;2022-10-30T07:52:40;17.30;71.10
22383;DHT22;11359;45.802;13.530;2022-10-30T07:55:06;17.40;71.10
22383;DHT22;11359;45.802;13.530;2022-10-30T07:57:38;17.40;71.10
22383;DHT22;11359;45.802;13.530;2022-10-30T08:00:05;17.40;71.10
22383;DHT22;11359;45.802;13.530;2022-10-30T08:02:31;17.40;71.10
22383;DHT22;11359;45.802;13.530;2022-10-30T08:04:56;17.50;71.10
22383;DHT22;11359;45.802;13.530;2022-10-30T08:07:22;17.50;71.10
22383;DHT22;11359;45.802;13.530;2022-10-30T08:09:47;17.60;71.20
22383;DHT22;11359;45.802;13.530;2022-10-30T08:12:14;17.60;71.20
22383;DHT22;11359;45.802;13.530;2022-10-30T08:14:39;17.60;71.10
22383;DHT22;11359;45.802;13.530;2022-10-30T08:17:05;17.60;71.10
22383;DHT22;11359;45.802;13.530;2022-10-30T08:19:32;17.60;71.20
22383;DHT22;11359;45.802;13.530;2022-10-30T08:21:57;17.70;71.20
22383;DHT22;11359;45.802;13.530;2022-10-30T08:24:24;17.70;71.10
22383;DHT22;11359;45.802;13.530;2022-10-30T08:26:52;17.70;71.10
22383;DHT22;11359;45.802;13.530;2022-10-30T08:29:18;17.80;71.20
22383;DHT22;11359;45.802;13.530;2022-10-30T08:31:46;17.80;71.20
22383;DHT22;11359;45.802;13.530;2022-10-30T08:34:12;17.80;71.20
22383;DHT22;11359;45.802;13.530;2022-10-30T08:36:37;17.80;71.20
22383;DHT22;11359;45.802;13.530;2022-10-30T08:39:03;17.90;71.20
22383;DHT22;11359;45.802;13.530;2022-10-30T08:41:29;17.90;71.20
22383;DHT22;11359;45.802;13.530;2022-10-30T08:43:54;17.90;71.30
22383;DHT22;11359;45.802;13.530;2022-10-30T08:46:20;17.90;71.30
22383;DHT22;11359;45.802;13.530;2022-10-30T08:48:45;18.00;71.30
22383;DHT22;11359;45.802;13.530;2022-10-30T08:51:11;18.00;71.30
22383;DHT22;11359;45.802;13.530;2022-10-30T08:53:36;18.10;71.40
22383;DHT22;11359;45.802;13.530;2022-10-30T08:56:02;18.10;72.20
22383;DHT22;11359;45.802;13.530;2022-10-30T08:58:27;18.10;71.40
22383;DHT22;11359;45.802;13.530;2022-10-30T09:00:53;18.20;71.40
22383;DHT22;11359;45.802;13.530;2022-10-30T09:03:19;18.20;71.40
22383;DHT22;11359;45.802;13.530;2022-10-30T09:05:44;18.20;71.50
22383;DHT22;11359;45.802;13.530;2022-10-30T09:08:10;18.20;71.50
22383;DHT22;11359;45.802;13.530;2022-10-30T09:10:35;18.30;71.60
22383;DHT22;11359;45.802;13.530;2022-10-30T09:13:01;18.30;71.50
22383;DHT22;11359;45.802;13.530;2022-10-30T09:15:26;18.30;71.50
22383;DHT22;11359;45.802;13.530;2022-10-30T09:17:56;18.30;71.50
22383;DHT22;11359;45.802;13.530;2022-10-30T09:20:21;18.40;71.60
22383;DHT22;11359;45.802;13.530;2022-10-30T09:22:47;18.40;71.50
22383;DHT22;11359;45.802;13.530;2022-10-30T09:25:13;18.40;71.50
22383;DHT22;11359;45.802;13.530;2022-10-30T09:27:38;18.40;71.60
22383;DHT22;11359;45.802;13.530;2022-10-30T09:30:04;18.50;71.60
22383;DHT22;11359;45.802;13.530;2022-10-30T09:32:30;18.50;71.60
22383;DHT22;11359;45.802;13.530;2022-10-30T09:34:55;18.50;71.60
22383;DHT22;11359;45.802;13.530;2022-10-30T09:37:21;18.50;71.60
22383;DHT22;11359;45.802;13.530;2022-10-30T09:39:48;18.60;71.60
22383;DHT22;11359;45.802;13.530;2022-10-30T09:42:24;18.60;71.60
22383;DHT22;11359;45.802;13.530;2022-10-30T10:02:34;18.80;71.60
22383;DHT22;11359;45.802;13.530;2022-10-30T10:05:05;18.80;71.60
22383;DHT22;11359;45.802;13.530;2022-10-30T10:07:36;18.80;71.60
22383;DHT22;11359;45.802;13.530;2022-10-30T10:10:04;18.90;71.70
22383;DHT22;11359;45.802;13.530;2022-10-30T10:14:56;18.90;71.70
22383;DHT22;11359;45.802;13.530;2022-10-30T10:17:34;18.90;71.60
22383;DHT22;11359;45.802;13.530;2022-10-30T10:20:03;18.90;71.60
22383;DHT22;11359;45.802;13.530;2022-10-30T10:25:10;19.00;71.70
22383;DHT22;11359;45.802;13.530;2022-10-30T10:30:16;19.00;71.70
22383;DHT22;11359;45.802;13.530;2022-10-30T10:38:14;19.10;71.70
22383;DHT22;11359;45.802;13.530;2022-10-30T10:46:28;19.20;71.80
22383;DHT22;11359;45.802;13.530;2022-10-30T10:51:40;19.30;71.80
22383;DHT22;11359;45.802;13.530;2022-10-30T10:54:16;19.20;71.70
22383;DHT22;11359;45.802;13.530;2022-10-30T10:56:43;19.20;71.70
22383;DHT22;11359;45.802;13.530;2022-10-30T11:01:40;19.30;71.80
22383;DHT22;11359;45.802;13.530;2022-10-30T11:06:51;19.40;71.90
22383;DHT22;11359;45.802;13.530;2022-10-30T11:09:18;19.40;71.80
22383;DHT22;11359;45.802;13.530;2022-10-30T11:11:44;19.40;71.90
22383;DHT22;11359;45.802;13.530;2022-10-30T11:14:14;19.40;71.90
22383;DHT22;11359;45.802;13.530;2022-10-30T11:19:14;19.40;71.80
22383;DHT22;11359;45.802;13.530;2022-10-30T11:21:47;19.50;71.90
22383;DHT22;11359;45.802;13.530;2022-10-30T11:32:16;19.50;71.90
22383;DHT22;11359;45.802;13.530;2022-10-30T11:34:43;19.60;72.00
22383;DHT22;11359;45.802;13.530;2022-10-30T11:37:08;19.60;72.00
22383;DHT22;11359;45.802;13.530;2022-10-30T11:42:40;19.60;71.90
22383;DHT22;11359;45.802;13.530;2022-10-30T11:45:23;19.60;72.00
22383;DHT22;11359;45.802;13.530;2022-10-30T11:47:49;19.70;72.00
22383;DHT22;11359;45.802;13.530;2022-10-30T11:50:48;19.70;72.00
22383;DHT22;11359;45.802;13.530;2022-10-30T11:53:10;19.70;72.00
22383;DHT22;11359;45.802;13.530;2022-10-30T11:55:38;19.70;72.00
22383;DHT22;11359;45.802;13.530;2022-10-30T11:58:05;19.70;71.90
22383;DHT22;11359;45.802;13.530;2022-10-30T12:00:33;19.70;72.00
22383;DHT22;11359;45.802;13.530;2022-10-30T12:03:00;19.70;72.00
22383;DHT22;11359;45.802;13.530;2022-10-30T12:05:29;19.80;72.00
22383;DHT22;11359;45.802;13.530;2022-10-30T12:08:11;19.80;72.00
22383;DHT22;11359;45.802;13.530;2022-10-30T12:10:44;19.80;72.00
22383;DHT22;11359;45.802;13.530;2022-10-30T12:13:16;19.80;72.00
22383;DHT22;11359;45.802;13.530;2022-10-30T12:15:42;19.80;71.90
22383;DHT22;11359;45.802;13.530;2022-10-30T12:18:15;19.90;71.90
22383;DHT22;11359;45.802;13.530;2022-10-30T12:20:43;19.90;71.80
22383;DHT22;11359;45.802;13.530;2022-10-30T12:23:11;19.90;71.70
22383;DHT22;11359;45.802;13.530;2022-10-30T12:25:39;19.90;71.60
22383;DHT22;11359;45.802;13.530;2022-10-30T12:28:21;19.90;71.60
22383;DHT22;11359;45.802;13.530;2022-10-30T12:30:51;20.00;71.50
22383;DHT22;11359;45.802;13.530;2022-10-30T12:38:19;20.00;71.30
22383;DHT22;11359;45.802;13.530;2022-10-30T12:40:55;20.00;71.10
22383;DHT22;11359;45.802;13.530;2022-10-30T12:43:26;20.10;71.20
22383;DHT22;11359;45.802;13.530;2022-10-30T12:45:53;20.10;71.10
22383;DHT22;11359;45.802;13.530;2022-10-30T12:48:29;20.10;71.10
22383;DHT22;11359;45.802;13.530;2022-10-30T12:55:54;20.20;70.90
22383;DHT22;11359;45.802;13.530;2022-10-30T13:00:55;20.20;70.70
22383;DHT22;11359;45.802;13.530;2022-10-30T13:05:54;20.20;70.60
22383;DHT22;11359;45.802;13.530;2022-10-30T13:08:32;20.30;70.60
22383;DHT22;11359;45.802;13.530;2022-10-30T13:11:06;20.30;70.60
22383;DHT22;11359;45.802;13.530;2022-10-30T13:13:38;20.30;70.50
22383;DHT22;11359;45.802;13.530;2022-10-30T13:16:06;20.30;70.50
22383;DHT22;11359;45.802;13.530;2022-10-30T13:18:32;20.30;70.40
22383;DHT22;11359;45.802;13.530;2022-10-30T13:23:27;20.30;70.30
22383;DHT22;11359;45.802;13.530;2022-10-30T13:28:32;20.40;70.30
22383;DHT22;11359;45.802;13.530;2022-10-30T13:36:31;20.40;70.20
22383;DHT22;11359;45.802;13.530;2022-10-30T13:39:02;20.40;70.10
22383;DHT22;11359;45.802;13.530;2022-10-30T13:41:38;20.40;70.10
22383;DHT22;11359;45.802;13.530;2022-10-30T13:51:58;20.50;69.90
22383;DHT22;11359;45.802;13.530;2022-10-30T13:54:36;20.50;69.80
22383;DHT22;11359;45.802;13.530;2022-10-30T13:57:07;20.50;69.80
22383;DHT22;11359;45.802;13.530;2022-10-30T14:02:02;20.50;69.60
22383;DHT22;11359;45.802;13.530;2022-10-30T14:04:34;20.50;69.60
22383;DHT22;11359;45.802;13.530;2022-10-30T14:07:09;20.50;69.50
22383;DHT22;11359;45.802;13.530;2022-10-30T14:09:38;20.50;69.40
22383;DHT22;11359;45.802;13.530;2022-10-30T14:14:53;20.50;69.40
22383;DHT22;11359;45.802;13.530;2022-10-30T14:17:18;20.50;69.30
22383;DHT22;11359;45.802;13.530;2022-10-30T14:22:28;20.50;69.20
22383;DHT22;11359;45.802;13.530;2022-10-30T14:24:54;20.50;69.20
22383;DHT22;11359;45.802;13.530;2022-10-30T14:27:20;20.60;69.20
22383;DHT22;11359;45.802;13.530;2022-10-30T14:29:50;20.60;69.20
22383;DHT22;11359;45.802;13.530;2022-10-30T14:34:43;20.60;69.30
22383;DHT22;11359;45.802;13.530;2022-10-30T14:37:09;20.60;69.30
22383;DHT22;11359;45.802;13.530;2022-10-30T14:39:41;20.70;69.40
22383;DHT22;11359;45.802;13.530;2022-10-30T14:44:48;20.70;69.40
22383;DHT22;11359;45.802;13.530;2022-10-30T14:52:29;20.80;69.30
22383;DHT22;11359;45.802;13.530;2022-10-30T15:03:09;20.80;68.40
22383;DHT22;11359;45.802;13.530;2022-10-30T15:10:35;20.80;68.10
22383;DHT22;11359;45.802;13.530;2022-10-30T15:15:35;20.80;68.00
22383;DHT22;11359;45.802;13.530;2022-10-30T15:18:06;20.80;67.90
22383;DHT22;11359;45.802;13.530;2022-10-30T15:20:33;20.80;67.90
22383;DHT22;11359;45.802;13.530;2022-10-30T15:23:19;20.80;67.80
22383;DHT22;11359;45.802;13.530;2022-10-30T15:25:51;20.80;67.80
22383;DHT22;11359;45.802;13.530;2022-10-30T15:28:18;20.70;67.60
22383;DHT22;11359;45.802;13.530;2022-10-30T15:33:29;20.70;67.60
22383;DHT22;11359;45.802;13.530;2022-10-30T15:36:01;20.70;67.60
22383;DHT22;11359;45.802;13.530;2022-10-30T15:38:27;20.70;68.30
22383;DHT22;11359;45.802;13.530;2022-10-30T15:40:56;20.60;67.50
22383;DHT22;11359;45.802;13.530;2022-10-30T15:43:23;20.60;67.40
22383;DHT22;11359;45.802;13.530;2022-10-30T15:45:51;20.60;67.40
22383;DHT22;11359;45.802;13.530;2022-10-30T15:48:27;20.60;67.40
22383;DHT22;11359;45.802;13.530;2022-10-30T15:53:24;20.50;67.30
22383;DHT22;11359;45.802;13.530;2022-10-30T15:55:56;20.50;67.30
22383;DHT22;11359;45.802;13.530;2022-10-30T15:58:22;20.50;67.30
22383;DHT22;11359;45.802;13.530;2022-10-30T16:00:58;20.40;67.20
22383;DHT22;11359;45.802;13.530;2022-10-30T16:03:24;20.40;67.20
22383;DHT22;11359;45.802;13.530;2022-10-30T16:05:50;20.40;67.20
22383;DHT22;11359;45.802;13.530;2022-10-30T16:08:20;20.30;67.20
22383;DHT22;11359;45.802;13.530;2022-10-30T16:10:47;20.40;67.30
22383;DHT22;11359;45.802;13.530;2022-10-30T16:13:16;20.30;67.20
22383;DHT22;11359;45.802;13.530;2022-10-30T16:15:42;20.30;67.20
22383;DHT22;11359;45.802;13.530;2022-10-30T16:20:42;20.20;67.20
22383;DHT22;11359;45.802;13.530;2022-10-30T16:23:08;20.20;67.20
22383;DHT22;11359;45.802;13.530;2022-10-30T16:25:34;20.20;67.30
22383;DHT22;11359;45.802;13.530;2022-10-30T16:28:02;20.10;67.20
22383;DHT22;11359;45.802;13.530;2022-10-30T16:30:29;20.10;67.20
22383;DHT22;11359;45.802;13.530;2022-10-30T16:32:56;20.10;67.30
22383;DHT22;11359;45.802;13.530;2022-10-30T16:35:22;20.10;67.30
22383;DHT22;11359;45.802;13.530;2022-10-30T16:37:48;20.10;67.40
22383;DHT22;11359;45.802;13.530;2022-10-30T16:40:25;20.00;67.40
22383;DHT22;11359;45.802;13.530;2022-10-30T16:42:55;20.00;67.50
22383;DHT22;11359;45.802;13.530;2022-10-30T16:47:52;20.00;67.50
22383;DHT22;11359;45.802;13.530;2022-10-30T16:50:22;19.90;67.40
22383;DHT22;11359;45.802;13.530;2022-10-30T16:52:51;19.90;67.50
22383;DHT22;11359;45.802;13.530;2022-10-30T16:55:20;19.90;67.50
22383;DHT22;11359;45.802;13.530;2022-10-30T16:57:47;19.90;67.60
22383;DHT22;11359;45.802;13.530;2022-10-30T17:00:17;19.90;67.60
22383;DHT22;11359;45.802;13.530;2022-10-30T17:02:43;19.80;67.60
22383;DHT22;11359;45.802;13.530;2022-10-30T17:05:17;19.80;67.60
22383;DHT22;11359;45.802;13.530;2022-10-30T17:07:54;19.80;67.60
22383;DHT22;11359;45.802;13.530;2022-10-30T17:10:30;19.80;67.70
22383;DHT22;11359;45.802;13.530;2022-10-30T17:15:41;19.80;67.80
22383;DHT22;11359;45.802;13.530;2022-10-30T17:18:07;19.70;67.80
22383;DHT22;11359;45.802;13.530;2022-10-30T17:20:33;19.70;67.80
22383;DHT22;11359;45.802;13.530;2022-10-30T17:23:13;19.70;67.80
22383;DHT22;11359;45.802;13.530;2022-10-30T17:25:40;19.70;67.90
22383;DHT22;11359;45.802;13.530;2022-10-30T17:28:06;19.70;67.90
22383;DHT22;11359;45.802;13.530;2022-10-30T17:33:02;19.70;68.00
22383;DHT22;11359;45.802;13.530;2022-10-30T17:35:27;19.60;68.00
22383;DHT22;11359;45.802;13.530;2022-10-30T17:37:53;19.60;68.00
22383;DHT22;11359;45.802;13.530;2022-10-30T17:40:19;19.60;68.00
22383;DHT22;11359;45.802;13.530;2022-10-30T17:42:45;19.60;68.10
22383;DHT22;11359;45.802;13.530;2022-10-30T17:45:20;19.60;68.20
22383;DHT22;11359;45.802;13.530;2022-10-30T17:47:45;19.60;69.00
22383;DHT22;11359;45.802;13.530;2022-10-30T17:50:11;19.60;68.20
22383;DHT22;11359;45.802;13.530;2022-10-30T17:52:36;19.50;68.20
22383;DHT22;11359;45.802;13.530;2022-10-30T17:55:06;19.50;68.20
22383;DHT22;11359;45.802;13.530;2022-10-30T17:57:33;19.50;68.20
22383;DHT22;11359;45.802;13.530;2022-10-30T17:59:59;19.50;68.20
22383;DHT22;11359;45.802;13.530;2022-10-30T18:02:24;19.50;68.30
22383;DHT22;11359;45.802;13.530;2022-10-30T18:04:50;19.50;68.40
22383;DHT22;11359;45.802;13.530;2022-10-30T18:07:19;19.40;68.30